Anaktuvuk Pass, Alaska
Current Conditions -  °F | °C
As of 6:16 PM on Tuesday 25 Nov 2014 (Local Time) from PAKP Reporting Station
Clear Clear  
Wind Chill: -30°   Ceiling: Unl
Heat Index: -23°   Visibility: 10mi
Dew Point: -27°   Wind: 6mph
Humidity: 71%   Direction: 360°N
Pressure: 30.17"   Gusts: NA
Location:  68.14°N, 151.74°W
Report Text: PAKP 260316Z AUTO 36005KT 10SM CLR M23/M27 A3017 RMK AO1
Loading
Personal Weather Stations






























Interactive Weather Map New forecast layout! Learn more

10-Day Weather Forecast

Advertisements
Track Severe Weather on mobile